sensor_id;sensor_type;location;lat;lon;timestamp;P1;P2;P0
63707;PMS5003;67643;-34.198;22.084;2023-03-01T00:01:18;15;11;
63707;PMS5003;67643;-34.198;22.084;2023-03-01T00:03:49;11;9;
63707;PMS5003;67643;-34.198;22.084;2023-03-01T00:06:19;11;9;
63707;PMS5003;67643;-34.198;22.084;2023-03-01T00:08:49;14;11;
63707;PMS5003;67643;-34.198;22.084;2023-03-01T00:11:18;16;12;
63707;PMS5003;67643;-34.198;22.084;2023-03-01T00:13:48;17;11;
63707;PMS5003;67643;-34.198;22.084;2023-03-01T00:16:20;16;13;
63707;PMS5003;67643;-34.198;22.084;2023-03-01T00:18:49;15;14;
63707;PMS5003;67643;-34.198;22.084;2023-03-01T00:21:18;20;15;
63707;PMS5003;67643;-34.198;22.084;2023-03-01T00:23:49;18;13;
63707;PMS5003;67643;-34.198;22.084;2023-03-01T00:26:18;19;15;
63707;PMS5003;67643;-34.198;22.084;2023-03-01T00:28:49;24;16;
63707;PMS5003;67643;-34.198;22.084;2023-03-01T00:31:18;20;15;
63707;PMS5003;67643;-34.198;22.084;2023-03-01T00:33:48;23;16;
63707;PMS5003;67643;-34.198;22.084;2023-03-01T00:36:19;23;17;
63707;PMS5003;67643;-34.198;22.084;2023-03-01T00:38:47;23;15;
63707;PMS5003;67643;-34.198;22.084;2023-03-01T00:41:16;21;20;
63707;PMS5003;67643;-34.198;22.084;2023-03-01T00:43:45;26;17;
63707;PMS5003;67643;-34.198;22.084;2023-03-01T00:46:15;27;19;
63707;PMS5003;67643;-34.198;22.084;2023-03-01T00:48:45;24;17;
63707;PMS5003;67643;-34.198;22.084;2023-03-01T00:51:14;16;13;
63707;PMS5003;67643;-34.198;22.084;2023-03-01T00:53:46;24;18;
63707;PMS5003;67643;-34.198;22.084;2023-03-01T00:56:18;28;19;
63707;PMS5003;67643;-34.198;22.084;2023-03-01T00:58:47;23;18;
63707;PMS5003;67643;-34.198;22.084;2023-03-01T01:01:16;21;17;
63707;PMS5003;67643;-34.198;22.084;2023-03-01T01:03:47;29;23;
63707;PMS5003;67643;-34.198;22.084;2023-03-01T01:06:17;29;18;
63707;PMS5003;67643;-34.198;22.084;2023-03-01T01:08:46;25;20;
63707;PMS5003;67643;-34.198;22.084;2023-03-01T01:11:15;35;24;
63707;PMS5003;67643;-34.198;22.084;2023-03-01T01:13:44;29;21;
63707;PMS5003;67643;-34.198;22.084;2023-03-01T01:16:14;37;20;
63707;PMS5003;67643;-34.198;22.084;2023-03-01T01:18:43;22;17;
63707;PMS5003;67643;-34.198;22.084;2023-03-01T01:21:14;32;19;
63707;PMS5003;67643;-34.198;22.084;2023-03-01T01:23:44;26;20;
63707;PMS5003;67643;-34.198;22.084;2023-03-01T01:26:15;20;16;
63707;PMS5003;67643;-34.198;22.084;2023-03-01T01:28:46;19;14;
63707;PMS5003;67643;-34.198;22.084;2023-03-01T01:31:14;21;18;
63707;PMS5003;67643;-34.198;22.084;2023-03-01T01:33:43;23;17;
63707;PMS5003;67643;-34.198;22.084;2023-03-01T01:36:12;23;15;
63707;PMS5003;67643;-34.198;22.084;2023-03-01T01:38:40;17;14;
63707;PMS5003;67643;-34.198;22.084;2023-03-01T01:41:09;21;15;
63707;PMS5003;67643;-34.198;22.084;2023-03-01T01:43:40;19;13;
63707;PMS5003;67643;-34.198;22.084;2023-03-01T01:46:13;21;14;
63707;PMS5003;67643;-34.198;22.084;2023-03-01T01:48:50;13;12;
63707;PMS5003;67643;-34.198;22.084;2023-03-01T01:51:25;14;10;
63707;PMS5003;67643;-34.198;22.084;2023-03-01T01:53:58;16;10;
63707;PMS5003;67643;-34.198;22.084;2023-03-01T01:56:28;16;11;
63707;PMS5003;67643;-34.198;22.084;2023-03-01T01:58:56;19;10;
63707;PMS5003;67643;-34.198;22.084;2023-03-01T04:06:05;25;21;
63707;PMS5003;67643;-34.198;22.084;2023-03-01T04:08:33;30;18;
63707;PMS5003;67643;-34.198;22.084;2023-03-01T04:11:03;35;21;
63707;PMS5003;67643;-34.198;22.084;2023-03-01T04:13:32;29;23;
63707;PMS5003;67643;-34.198;22.084;2023-03-01T04:16:00;30;22;
63707;PMS5003;67643;-34.198;22.084;2023-03-01T04:18:28;27;19;
63707;PMS5003;67643;-34.198;22.084;2023-03-01T04:20:57;28;20;
63707;PMS5003;67643;-34.198;22.084;2023-03-01T04:23:25;26;19;
63707;PMS5003;67643;-34.198;22.084;2023-03-01T04:25:54;26;19;
63707;PMS5003;67643;-34.198;22.084;2023-03-01T04:28:24;28;23;
63707;PMS5003;67643;-34.198;22.084;2023-03-01T04:30:54;40;27;
63707;PMS5003;67643;-34.198;22.084;2023-03-01T04:33:24;31;21;
63707;PMS5003;67643;-34.198;22.084;2023-03-01T04:35:53;31;27;
63707;PMS5003;67643;-34.198;22.084;2023-03-01T04:38:22;34;25;
63707;PMS5003;67643;-34.198;22.084;2023-03-01T04:40:50;32;25;
63707;PMS5003;67643;-34.198;22.084;2023-03-01T04:43:19;43;25;
63707;PMS5003;67643;-34.198;22.084;2023-03-01T04:45:48;40;25;
63707;PMS5003;67643;-34.198;22.084;2023-03-01T04:48:16;37;24;
63707;PMS5003;67643;-34.198;22.084;2023-03-01T04:50:45;32;25;
63707;PMS5003;67643;-34.198;22.084;2023-03-01T04:53:13;32;28;
63707;PMS5003;67643;-34.198;22.084;2023-03-01T04:55:41;32;23;
63707;PMS5003;67643;-34.198;22.084;2023-03-01T04:58:10;52;37;
63707;PMS5003;67643;-34.198;22.084;2023-03-01T05:00:38;45;38;
63707;PMS5003;67643;-34.198;22.084;2023-03-01T05:03:07;39;33;
63707;PMS5003;67643;-34.198;22.084;2023-03-01T05:05:37;40;34;
63707;PMS5003;67643;-34.198;22.084;2023-03-01T05:08:07;41;29;
63707;PMS5003;67643;-34.198;22.084;2023-03-01T05:10:36;45;31;
63707;PMS5003;67643;-34.198;22.084;2023-03-01T05:13:04;29;23;
63707;PMS5003;67643;-34.198;22.084;2023-03-01T05:15:33;31;22;
63707;PMS5003;67643;-34.198;22.084;2023-03-01T05:18:02;29;21;
63707;PMS5003;67643;-34.198;22.084;2023-03-01T05:20:30;18;12;
63707;PMS5003;67643;-34.198;22.084;2023-03-01T05:22:59;19;17;
63707;PMS5003;67643;-34.198;22.084;2023-03-01T05:25:27;24;17;
63707;PMS5003;67643;-34.198;22.084;2023-03-01T05:27:55;23;15;
63707;PMS5003;67643;-34.198;22.084;2023-03-01T05:30:24;19;15;
63707;PMS5003;67643;-34.198;22.084;2023-03-01T05:32:53;17;14;
63707;PMS5003;67643;-34.198;22.084;2023-03-01T05:35:22;19;13;
63707;PMS5003;67643;-34.198;22.084;2023-03-01T05:37:51;13;11;
63707;PMS5003;67643;-34.198;22.084;2023-03-01T05:40:20;19;14;
63707;PMS5003;67643;-34.198;22.084;2023-03-01T05:42:52;26;16;
63707;PMS5003;67643;-34.198;22.084;2023-03-01T05:45:23;12;10;
63707;PMS5003;67643;-34.198;22.084;2023-03-01T05:47:53;13;11;
63707;PMS5003;67643;-34.198;22.084;2023-03-01T05:50:22;21;17;
63707;PMS5003;67643;-34.198;22.084;2023-03-01T05:52:57;12;8;
63707;PMS5003;67643;-34.198;22.084;2023-03-01T05:55:28;10;8;
63707;PMS5003;67643;-34.198;22.084;2023-03-01T05:57:58;13;10;
63707;PMS5003;67643;-34.198;22.084;2023-03-01T06:00:27;15;14;
63707;PMS5003;67643;-34.198;22.084;2023-03-01T06:02:57;10;8;
63707;PMS5003;67643;-34.198;22.084;2023-03-01T06:05:27;14;11;
63707;PMS5003;67643;-34.198;22.084;2023-03-01T06:07:58;13;9;
63707;PMS5003;67643;-34.198;22.084;2023-03-01T06:10:29;15;11;
63707;PMS5003;67643;-34.198;22.084;2023-03-01T06:12:57;14;8;
63707;PMS5003;67643;-34.198;22.084;2023-03-01T06:15:26;12;8;
63707;PMS5003;67643;-34.198;22.084;2023-03-01T06:17:55;8;7;
63707;PMS5003;67643;-34.198;22.084;2023-03-01T06:20:24;11;8;
63707;PMS5003;67643;-34.198;22.084;2023-03-01T06:22:55;12;7;
63707;PMS5003;67643;-34.198;22.084;2023-03-01T06:25:25;11;6;
63707;PMS5003;67643;-34.198;22.084;2023-03-01T06:27:54;11;4;
63707;PMS5003;67643;-34.198;22.084;2023-03-01T06:30:23;9;6;
63707;PMS5003;67643;-34.198;22.084;2023-03-01T06:32:53;6;4;
63707;PMS5003;67643;-34.198;22.084;2023-03-01T06:35:23;6;5;
63707;PMS5003;67643;-34.198;22.084;2023-03-01T06:37:51;5;5;
63707;PMS5003;67643;-34.198;22.084;2023-03-01T06:40:19;9;5;
63707;PMS5003;67643;-34.198;22.084;2023-03-01T06:42:49;8;3;
63707;PMS5003;67643;-34.198;22.084;2023-03-01T06:45:18;10;5;
63707;PMS5003;67643;-34.198;22.084;2023-03-01T06:47:47;5;3;
63707;PMS5003;67643;-34.198;22.084;2023-03-01T06:50:16;5;5;
63707;PMS5003;67643;-34.198;22.084;2023-03-01T06:52:46;5;4;
63707;PMS5003;67643;-34.198;22.084;2023-03-01T06:55:15;5;4;
63707;PMS5003;67643;-34.198;22.084;2023-03-01T06:57:43;6;5;
63707;PMS5003;67643;-34.198;22.084;2023-03-01T07:00:12;5;3;
63707;PMS5003;67643;-34.198;22.084;2023-03-01T07:02:41;2;2;
63707;PMS5003;67643;-34.198;22.084;2023-03-01T07:05:09;8;5;
63707;PMS5003;67643;-34.198;22.084;2023-03-01T07:07:37;6;3;
63707;PMS5003;67643;-34.198;22.084;2023-03-01T07:10:06;6;4;
63707;PMS5003;67643;-34.198;22.084;2023-03-01T07:12:38;4;2;
63707;PMS5003;67643;-34.198;22.084;2023-03-01T07:15:08;4;3;
63707;PMS5003;67643;-34.198;22.084;2023-03-01T07:17:37;3;2;
63707;PMS5003;67643;-34.198;22.084;2023-03-01T07:20:06;4;4;
63707;PMS5003;67643;-34.198;22.084;2023-03-01T07:22:35;6;4;
63707;PMS5003;67643;-34.198;22.084;2023-03-01T07:25:03;3;1;
63707;PMS5003;67643;-34.198;22.084;2023-03-01T07:27:32;8;4;
63707;PMS5003;67643;-34.198;22.084;2023-03-01T07:30:01;5;3;
63707;PMS5003;67643;-34.198;22.084;2023-03-01T07:32:30;3;3;
63707;PMS5003;67643;-34.198;22.084;2023-03-01T07:34:59;10;4;
63707;PMS5003;67643;-34.198;22.084;2023-03-01T07:37:27;6;3;
63707;PMS5003;67643;-34.198;22.084;2023-03-01T07:39:55;4;4;
63707;PMS5003;67643;-34.198;22.084;2023-03-01T07:42:24;3;3;
63707;PMS5003;67643;-34.198;22.084;2023-03-01T07:44:52;4;3;
63707;PMS5003;67643;-34.198;22.084;2023-03-01T07:47:21;4;4;
63707;PMS5003;67643;-34.198;22.084;2023-03-01T07:49:49;10;5;
63707;PMS5003;67643;-34.198;22.084;2023-03-01T07:52:18;4;4;
63707;PMS5003;67643;-34.198;22.084;2023-03-01T07:54:46;5;5;
63707;PMS5003;67643;-34.198;22.084;2023-03-01T07:57:15;3;3;
63707;PMS5003;67643;-34.198;22.084;2023-03-01T07:59:43;5;4;
63707;PMS5003;67643;-34.198;22.084;2023-03-01T08:02:13;4;4;
63707;PMS5003;67643;-34.198;22.084;2023-03-01T08:04:42;8;2;
63707;PMS5003;67643;-34.198;22.084;2023-03-01T08:07:10;5;3;
63707;PMS5003;67643;-34.198;22.084;2023-03-01T08:09:39;4;4;
63707;PMS5003;67643;-34.198;22.084;2023-03-01T08:12:07;3;2;
63707;PMS5003;67643;-34.198;22.084;2023-03-01T08:14:36;5;3;
63707;PMS5003;67643;-34.198;22.084;2023-03-01T08:17:04;4;2;
63707;PMS5003;67643;-34.198;22.084;2023-03-01T08:19:33;3;3;
63707;PMS5003;67643;-34.198;22.084;2023-03-01T08:22:03;4;2;
63707;PMS5003;67643;-34.198;22.084;2023-03-01T08:24:31;6;2;
63707;PMS5003;67643;-34.198;22.084;2023-03-01T08:26:59;3;2;
63707;PMS5003;67643;-34.198;22.084;2023-03-01T08:29:28;4;3;
63707;PMS5003;67643;-34.198;22.084;2023-03-01T08:31:58;3;3;
63707;PMS5003;67643;-34.198;22.084;2023-03-01T08:34:27;4;3;
63707;PMS5003;67643;-34.198;22.084;2023-03-01T08:36:56;6;2;
63707;PMS5003;67643;-34.198;22.084;2023-03-01T08:39:24;0;0;
63707;PMS5003;67643;-34.198;22.084;2023-03-01T08:41:53;5;4;
63707;PMS5003;67643;-34.198;22.084;2023-03-01T08:44:21;6;6;
63707;PMS5003;67643;-34.198;22.084;2023-03-01T08:46:49;5;3;
63707;PMS5003;67643;-34.198;22.084;2023-03-01T08:49:19;4;1;
63707;PMS5003;67643;-34.198;22.084;2023-03-01T08:51:47;3;2;
63707;PMS5003;67643;-34.198;22.084;2023-03-01T08:54:16;2;2;
63707;PMS5003;67643;-34.198;22.084;2023-03-01T08:56:47;4;1;
63707;PMS5003;67643;-34.198;22.084;2023-03-01T08:59:16;6;3;
63707;PMS5003;67643;-34.198;22.084;2023-03-01T09:01:45;7;2;
63707;PMS5003;67643;-34.198;22.084;2023-03-01T09:04:14;6;2;
63707;PMS5003;67643;-34.198;22.084;2023-03-01T09:06:43;3;2;
63707;PMS5003;67643;-34.198;22.084;2023-03-01T09:09:13;7;5;
63707;PMS5003;67643;-34.198;22.084;2023-03-01T09:11:43;7;4;
63707;PMS5003;67643;-34.198;22.084;2023-03-01T09:14:12;9;3;
63707;PMS5003;67643;-34.198;22.084;2023-03-01T09:16:41;9;6;
63707;PMS5003;67643;-34.198;22.084;2023-03-01T09:19:10;8;4;
63707;PMS5003;67643;-34.198;22.084;2023-03-01T09:21:38;6;5;
63707;PMS5003;67643;-34.198;22.084;2023-03-01T09:24:11;4;4;
63707;PMS5003;67643;-34.198;22.084;2023-03-01T09:26:40;5;3;
63707;PMS5003;67643;-34.198;22.084;2023-03-01T09:29:09;3;2;
63707;PMS5003;67643;-34.198;22.084;2023-03-01T09:31:37;3;3;
63707;PMS5003;67643;-34.198;22.084;2023-03-01T09:34:08;10;4;
63707;PMS5003;67643;-34.198;22.084;2023-03-01T09:36:36;8;5;
63707;PMS5003;67643;-34.198;22.084;2023-03-01T09:39:04;6;4;
63707;PMS5003;67643;-34.198;22.084;2023-03-01T09:41:49;3;2;
63707;PMS5003;67643;-34.198;22.084;2023-03-01T09:44:27;2;2;
63707;PMS5003;67643;-34.198;22.084;2023-03-01T09:47:03;8;2;
63707;PMS5003;67643;-34.198;22.084;2023-03-01T09:49:33;9;3;
63707;PMS5003;67643;-34.198;22.084;2023-03-01T09:52:06;4;2;
63707;PMS5003;67643;-34.198;22.084;2023-03-01T09:54:46;6;3;
63707;PMS5003;67643;-34.198;22.084;2023-03-01T09:57:19;4;3;
63707;PMS5003;67643;-34.198;22.084;2023-03-01T09:59:57;3;1;
63707;PMS5003;67643;-34.198;22.084;2023-03-01T10:02:41;4;1;
63707;PMS5003;67643;-34.198;22.084;2023-03-01T12:12:24;6;3;
63707;PMS5003;67643;-34.198;22.084;2023-03-01T12:15:01;4;1;
63707;PMS5003;67643;-34.198;22.084;2023-03-01T12:17:51;3;1;
63707;PMS5003;67643;-34.198;22.084;2023-03-01T12:20:40;5;4;
63707;PMS5003;67643;-34.198;22.084;2023-03-01T12:23:28;6;4;
63707;PMS5003;67643;-34.198;22.084;2023-03-01T12:26:15;3;1;
63707;PMS5003;67643;-34.198;22.084;2023-03-01T12:28:54;3;3;
63707;PMS5003;67643;-34.198;22.084;2023-03-01T12:31:39;8;4;
63707;PMS5003;67643;-34.198;22.084;2023-03-01T12:34:26;5;2;
63707;PMS5003;67643;-34.198;22.084;2023-03-01T12:37:21;5;4;
63707;PMS5003;67643;-34.198;22.084;2023-03-01T12:40:09;4;2;
63707;PMS5003;67643;-34.198;22.084;2023-03-01T12:42:55;4;3;
63707;PMS5003;67643;-34.198;22.084;2023-03-01T12:45:39;3;2;
63707;PMS5003;67643;-34.198;22.084;2023-03-01T12:48:19;7;6;
63707;PMS5003;67643;-34.198;22.084;2023-03-01T12:50:59;7;4;
63707;PMS5003;67643;-34.198;22.084;2023-03-01T12:53:34;5;2;
63707;PMS5003;67643;-34.198;22.084;2023-03-01T12:56:07;5;4;
63707;PMS5003;67643;-34.198;22.084;2023-03-01T12:58:40;8;3;
63707;PMS5003;67643;-34.198;22.084;2023-03-01T13:01:18;6;3;
63707;PMS5003;67643;-34.198;22.084;2023-03-01T13:04:43;6;2;
63707;PMS5003;67643;-34.198;22.084;2023-03-01T13:07:25;4;4;
63707;PMS5003;67643;-34.198;22.084;2023-03-01T13:10:09;7;6;
63707;PMS5003;67643;-34.198;22.084;2023-03-01T13:12:52;4;4;
63707;PMS5003;67643;-34.198;22.084;2023-03-01T13:15:29;5;5;
63707;PMS5003;67643;-34.198;22.084;2023-03-01T13:18:01;5;2;
63707;PMS5003;67643;-34.198;22.084;2023-03-01T13:20:33;6;4;
63707;PMS5003;67643;-34.198;22.084;2023-03-01T13:23:23;5;3;
63707;PMS5003;67643;-34.198;22.084;2023-03-01T13:26:02;7;3;
63707;PMS5003;67643;-34.198;22.084;2023-03-01T13:28:38;5;2;
63707;PMS5003;67643;-34.198;22.084;2023-03-01T13:31:54;8;5;
63707;PMS5003;67643;-34.198;22.084;2023-03-01T13:34:39;8;6;
63707;PMS5003;67643;-34.198;22.084;2023-03-01T13:37:09;8;4;
63707;PMS5003;67643;-34.198;22.084;2023-03-01T13:39:45;2;2;
63707;PMS5003;67643;-34.198;22.084;2023-03-01T13:42:46;3;2;
63707;PMS5003;67643;-34.198;22.084;2023-03-01T13:45:17;4;1;
63707;PMS5003;67643;-34.198;22.084;2023-03-01T13:47:51;4;4;
63707;PMS5003;67643;-34.198;22.084;2023-03-01T13:50:23;3;2;
63707;PMS5003;67643;-34.198;22.084;2023-03-01T13:52:54;3;2;
63707;PMS5003;67643;-34.198;22.084;2023-03-01T13:55:25;7;4;
63707;PMS5003;67643;-34.198;22.084;2023-03-01T13:57:59;5;3;
63707;PMS5003;67643;-34.198;22.084;2023-03-01T14:00:32;3;3;
63707;PMS5003;67643;-34.198;22.084;2023-03-01T14:03:05;7;4;
63707;PMS5003;67643;-34.198;22.084;2023-03-01T14:05:38;6;3;
63707;PMS5003;67643;-34.198;22.084;2023-03-01T14:08:19;3;3;
63707;PMS5003;67643;-34.198;22.084;2023-03-01T14:10:53;9;4;
63707;PMS5003;67643;-34.198;22.084;2023-03-01T14:13:38;3;3;
63707;PMS5003;67643;-34.198;22.084;2023-03-01T14:16:22;6;4;
63707;PMS5003;67643;-34.198;22.084;2023-03-01T14:19:02;8;4;
63707;PMS5003;67643;-34.198;22.084;2023-03-01T14:21:41;5;4;
63707;PMS5003;67643;-34.198;22.084;2023-03-01T14:24:15;5;5;
63707;PMS5003;67643;-34.198;22.084;2023-03-01T14:26:47;4;4;
63707;PMS5003;67643;-34.198;22.084;2023-03-01T14:29:24;5;3;
63707;PMS5003;67643;-34.198;22.084;2023-03-01T14:31:54;8;5;
63707;PMS5003;67643;-34.198;22.084;2023-03-01T14:34:35;8;4;
63707;PMS5003;67643;-34.198;22.084;2023-03-01T14:37:11;12;9;
63707;PMS5003;67643;-34.198;22.084;2023-03-01T14:39:45;8;6;
63707;PMS5003;67643;-34.198;22.084;2023-03-01T14:42:14;7;3;
63707;PMS5003;67643;-34.198;22.084;2023-03-01T14:44:43;8;7;
63707;PMS5003;67643;-34.198;22.084;2023-03-01T14:47:15;4;4;
63707;PMS5003;67643;-34.198;22.084;2023-03-01T14:49:50;5;5;
63707;PMS5003;67643;-34.198;22.084;2023-03-01T14:52:27;3;3;
63707;PMS5003;67643;-34.198;22.084;2023-03-01T14:55:03;11;6;
63707;PMS5003;67643;-34.198;22.084;2023-03-01T14:57:34;8;5;
63707;PMS5003;67643;-34.198;22.084;2023-03-01T15:00:03;7;2;
63707;PMS5003;67643;-34.198;22.084;2023-03-01T15:02:35;9;8;
63707;PMS5003;67643;-34.198;22.084;2023-03-01T15:05:04;8;6;
63707;PMS5003;67643;-34.198;22.084;2023-03-01T15:07:36;4;4;
63707;PMS5003;67643;-34.198;22.084;2023-03-01T15:10:14;7;4;
63707;PMS5003;67643;-34.198;22.084;2023-03-01T15:12:47;8;6;
63707;PMS5003;67643;-34.198;22.084;2023-03-01T15:15:22;8;5;
63707;PMS5003;67643;-34.198;22.084;2023-03-01T15:18:01;8;6;
63707;PMS5003;67643;-34.198;22.084;2023-03-01T15:20:33;13;8;
63707;PMS5003;67643;-34.198;22.084;2023-03-01T15:23:02;11;7;
63707;PMS5003;67643;-34.198;22.084;2023-03-01T15:25:32;10;7;
63707;PMS5003;67643;-34.198;22.084;2023-03-01T15:28:01;13;11;
63707;PMS5003;67643;-34.198;22.084;2023-03-01T15:30:31;8;6;
63707;PMS5003;67643;-34.198;22.084;2023-03-01T15:33:18;7;5;
63707;PMS5003;67643;-34.198;22.084;2023-03-01T15:35:56;10;6;
63707;PMS5003;67643;-34.198;22.084;2023-03-01T15:38:28;7;4;
63707;PMS5003;67643;-34.198;22.084;2023-03-01T15:41:01;14;6;
63707;PMS5003;67643;-34.198;22.084;2023-03-01T15:43:39;11;6;
63707;PMS5003;67643;-34.198;22.084;2023-03-01T15:46:16;8;5;
63707;PMS5003;67643;-34.198;22.084;2023-03-01T15:48:47;11;6;
63707;PMS5003;67643;-34.198;22.084;2023-03-01T15:51:18;7;5;
63707;PMS5003;67643;-34.198;22.084;2023-03-01T15:53:54;11;5;
63707;PMS5003;67643;-34.198;22.084;2023-03-01T15:56:25;8;4;
63707;PMS5003;67643;-34.198;22.084;2023-03-01T15:58:57;4;4;
63707;PMS5003;67643;-34.198;22.084;2023-03-01T16:01:27;10;3;
63707;PMS5003;67643;-34.198;22.084;2023-03-01T16:03:57;9;6;
63707;PMS5003;67643;-34.198;22.084;2023-03-01T16:06:25;6;2;
63707;PMS5003;67643;-34.198;22.084;2023-03-01T16:08:54;10;8;
63707;PMS5003;67643;-34.198;22.084;2023-03-01T16:11:22;8;4;
63707;PMS5003;67643;-34.198;22.084;2023-03-01T16:13:50;5;4;
63707;PMS5003;67643;-34.198;22.084;2023-03-01T16:16:20;8;4;
63707;PMS5003;67643;-34.198;22.084;2023-03-01T16:18:48;8;4;
63707;PMS5003;67643;-34.198;22.084;2023-03-01T16:21:19;7;4;
63707;PMS5003;67643;-34.198;22.084;2023-03-01T16:23:49;6;4;
63707;PMS5003;67643;-34.198;22.084;2023-03-01T16:26:18;3;3;
63707;PMS5003;67643;-34.198;22.084;2023-03-01T16:28:46;3;2;
63707;PMS5003;67643;-34.198;22.084;2023-03-01T16:31:17;5;3;
63707;PMS5003;67643;-34.198;22.084;2023-03-01T16:33:47;5;3;
63707;PMS5003;67643;-34.198;22.084;2023-03-01T16:36:16;7;5;
63707;PMS5003;67643;-34.198;22.084;2023-03-01T16:38:46;4;3;
63707;PMS5003;67643;-34.198;22.084;2023-03-01T16:41:15;6;4;
63707;PMS5003;67643;-34.198;22.084;2023-03-01T16:43:45;7;3;
63707;PMS5003;67643;-34.198;22.084;2023-03-01T16:46:15;6;4;
63707;PMS5003;67643;-34.198;22.084;2023-03-01T16:48:46;5;5;
63707;PMS5003;67643;-34.198;22.084;2023-03-01T16:51:15;8;4;
63707;PMS5003;67643;-34.198;22.084;2023-03-01T16:53:44;9;8;
63707;PMS5003;67643;-34.198;22.084;2023-03-01T16:56:12;10;7;
63707;PMS5003;67643;-34.198;22.084;2023-03-01T16:58:42;5;5;
63707;PMS5003;67643;-34.198;22.084;2023-03-01T17:01:11;10;8;
63707;PMS5003;67643;-34.198;22.084;2023-03-01T17:03:41;12;9;
63707;PMS5003;67643;-34.198;22.084;2023-03-01T17:06:11;10;7;
63707;PMS5003;67643;-34.198;22.084;2023-03-01T17:08:42;13;7;
63707;PMS5003;67643;-34.198;22.084;2023-03-01T17:11:12;13;9;
63707;PMS5003;67643;-34.198;22.084;2023-03-01T17:13:42;12;10;
63707;PMS5003;67643;-34.198;22.084;2023-03-01T17:16:11;11;7;
63707;PMS5003;67643;-34.198;22.084;2023-03-01T17:18:42;15;10;
63707;PMS5003;67643;-34.198;22.084;2023-03-01T17:21:11;9;8;
63707;PMS5003;67643;-34.198;22.084;2023-03-01T17:23:40;9;7;
63707;PMS5003;67643;-34.198;22.084;2023-03-01T17:26:11;13;7;
63707;PMS5003;67643;-34.198;22.084;2023-03-01T17:28:40;14;7;
63707;PMS5003;67643;-34.198;22.084;2023-03-01T17:31:08;9;6;
63707;PMS5003;67643;-34.198;22.084;2023-03-01T17:33:38;8;8;
63707;PMS5003;67643;-34.198;22.084;2023-03-01T17:36:06;9;7;
63707;PMS5003;67643;-34.198;22.084;2023-03-01T17:38:34;17;9;
63707;PMS5003;67643;-34.198;22.084;2023-03-01T17:41:03;11;6;
63707;PMS5003;67643;-34.198;22.084;2023-03-01T17:43:31;7;6;
63707;PMS5003;67643;-34.198;22.084;2023-03-01T17:46:00;9;7;
63707;PMS5003;67643;-34.198;22.084;2023-03-01T17:48:28;4;4;
63707;PMS5003;67643;-34.198;22.084;2023-03-01T17:50:56;8;4;
63707;PMS5003;67643;-34.198;22.084;2023-03-01T17:53:24;6;5;
63707;PMS5003;67643;-34.198;22.084;2023-03-01T17:55:58;6;4;
63707;PMS5003;67643;-34.198;22.084;2023-03-01T17:58:28;11;5;
63707;PMS5003;67643;-34.198;22.084;2023-03-01T18:01:06;14;5;
63707;PMS5003;67643;-34.198;22.084;2023-03-01T20:08:11;11;5;
63707;PMS5003;67643;-34.198;22.084;2023-03-01T20:10:40;5;3;
63707;PMS5003;67643;-34.198;22.084;2023-03-01T20:13:08;3;1;
63707;PMS5003;67643;-34.198;22.084;2023-03-01T20:15:40;1;1;
63707;PMS5003;67643;-34.198;22.084;2023-03-01T20:18:09;4;3;
63707;PMS5003;67643;-34.198;22.084;2023-03-01T20:20:38;5;3;
63707;PMS5003;67643;-34.198;22.084;2023-03-01T20:23:07;3;2;
63707;PMS5003;67643;-34.198;22.084;2023-03-01T20:25:35;2;2;
63707;PMS5003;67643;-34.198;22.084;2023-03-01T20:28:04;1;1;
63707;PMS5003;67643;-34.198;22.084;2023-03-01T20:30:32;6;2;
63707;PMS5003;67643;-34.198;22.084;2023-03-01T20:33:03;2;2;
63707;PMS5003;67643;-34.198;22.084;2023-03-01T20:35:32;4;2;
63707;PMS5003;67643;-34.198;22.084;2023-03-01T20:38:00;4;2;
63707;PMS5003;67643;-34.198;22.084;2023-03-01T20:40:30;6;6;
63707;PMS5003;67643;-34.198;22.084;2023-03-01T20:42:59;7;5;
63707;PMS5003;67643;-34.198;22.084;2023-03-01T20:45:27;2;2;
63707;PMS5003;67643;-34.198;22.084;2023-03-01T20:47:55;5;4;
63707;PMS5003;67643;-34.198;22.084;2023-03-01T20:50:24;4;2;
63707;PMS5003;67643;-34.198;22.084;2023-03-01T20:52:53;1;1;
63707;PMS5003;67643;-34.198;22.084;2023-03-01T20:55:21;4;2;
63707;PMS5003;67643;-34.198;22.084;2023-03-01T20:57:49;1;1;
63707;PMS5003;67643;-34.198;22.084;2023-03-01T21:00:18;2;2;
63707;PMS5003;67643;-34.198;22.084;2023-03-01T21:02:47;1;1;
63707;PMS5003;67643;-34.198;22.084;2023-03-01T21:05:16;5;3;
63707;PMS5003;67643;-34.198;22.084;2023-03-01T21:07:44;1;1;
63707;PMS5003;67643;-34.198;22.084;2023-03-01T21:10:13;4;2;
63707;PMS5003;67643;-34.198;22.084;2023-03-01T21:12:42;3;2;
63707;PMS5003;67643;-34.198;22.084;2023-03-01T21:15:10;4;1;
63707;PMS5003;67643;-34.198;22.084;2023-03-01T21:17:39;3;2;
63707;PMS5003;67643;-34.198;22.084;2023-03-01T21:20:08;4;1;
63707;PMS5003;67643;-34.198;22.084;2023-03-01T21:22:36;3;1;
63707;PMS5003;67643;-34.198;22.084;2023-03-01T21:25:05;2;2;
63707;PMS5003;67643;-34.198;22.084;2023-03-01T21:27:35;2;2;
63707;PMS5003;67643;-34.198;22.084;2023-03-01T21:30:05;3;3;
63707;PMS5003;67643;-34.198;22.084;2023-03-01T21:32:33;4;3;
63707;PMS5003;67643;-34.198;22.084;2023-03-01T21:35:02;5;2;
63707;PMS5003;67643;-34.198;22.084;2023-03-01T21:37:31;5;2;
63707;PMS5003;67643;-34.198;22.084;2023-03-01T21:39:59;7;5;
63707;PMS5003;67643;-34.198;22.084;2023-03-01T21:42:28;2;2;
63707;PMS5003;67643;-34.198;22.084;2023-03-01T21:44:56;4;1;
63707;PMS5003;67643;-34.198;22.084;2023-03-01T21:47:25;3;3;
63707;PMS5003;67643;-34.198;22.084;2023-03-01T21:49:53;1;1;
63707;PMS5003;67643;-34.198;22.084;2023-03-01T21:52:22;4;2;
63707;PMS5003;67643;-34.198;22.084;2023-03-01T21:54:50;4;2;
63707;PMS5003;67643;-34.198;22.084;2023-03-01T21:57:19;5;4;
63707;PMS5003;67643;-34.198;22.084;2023-03-01T21:59:48;1;1;
63707;PMS5003;67643;-34.198;22.084;2023-03-01T22:02:16;3;2;
63707;PMS5003;67643;-34.198;22.084;2023-03-01T22:04:44;5;2;
63707;PMS5003;67643;-34.198;22.084;2023-03-01T22:07:13;1;1;
63707;PMS5003;67643;-34.198;22.084;2023-03-01T22:09:42;6;2;
63707;PMS5003;67643;-34.198;22.084;2023-03-01T22:12:10;3;1;
63707;PMS5003;67643;-34.198;22.084;2023-03-01T22:14:39;3;1;
63707;PMS5003;67643;-34.198;22.084;2023-03-01T22:17:08;3;2;
63707;PMS5003;67643;-34.198;22.084;2023-03-01T22:19:36;6;0;
63707;PMS5003;67643;-34.198;22.084;2023-03-01T22:22:05;3;2;
63707;PMS5003;67643;-34.198;22.084;2023-03-01T22:24:33;4;2;
63707;PMS5003;67643;-34.198;22.084;2023-03-01T22:27:02;4;1;
63707;PMS5003;67643;-34.198;22.084;2023-03-01T22:29:30;2;2;
63707;PMS5003;67643;-34.198;22.084;2023-03-01T22:31:58;4;4;
63707;PMS5003;67643;-34.198;22.084;2023-03-01T22:34:27;9;5;
63707;PMS5003;67643;-34.198;22.084;2023-03-01T22:36:55;2;2;
63707;PMS5003;67643;-34.198;22.084;2023-03-01T22:39:24;6;6;
63707;PMS5003;67643;-34.198;22.084;2023-03-01T22:41:53;2;2;
63707;PMS5003;67643;-34.198;22.084;2023-03-01T22:44:22;1;1;
63707;PMS5003;67643;-34.198;22.084;2023-03-01T22:46:51;2;1;
63707;PMS5003;67643;-34.198;22.084;2023-03-01T22:49:19;3;2;
63707;PMS5003;67643;-34.198;22.084;2023-03-01T22:51:48;1;1;